Time;durP1;ratioP1;P1;durP2;ratioP2;P2;SDS_P1;SDS_P2;PMS_P1;PMS_P2;Temp;Humidity;BMP_temperature;BMP_pressure;BME280_temperature;BME280_humidity;BME280_pressure;Samples;Min_cycle;Max_cycle;Signal;HPM_P1;HPM_P2
2022/06/05 00:01:23;;;;;;;7.50;6.90;;;18.60;99.90;;;;;;4997262;28;20214;-91
2022/06/05 00:03:55;;;;;;;8.23;7.43;;;18.60;99.90;;;;;;4997827;28;20175;-91
2022/06/05 00:06:38;;;;;;;7.82;7.13;;;18.60;99.90;;;;;;4997748;28;20207;-90
2022/06/05 00:09:24;;;;;;;8.35;7.60;;;18.70;99.90;;;;;;4997696;28;20170;-90
2022/06/05 00:12:11;;;;;;;8.90;8.00;;;18.70;99.90;;;;;;4997490;28;20292;-91
2022/06/05 00:14:38;;;;;;;9.20;8.30;;;18.60;99.90;;;;;;4997380;28;20183;-91
2022/06/05 00:17:11;;;;;;;9.00;8.10;;;18.60;99.90;;;;;;4997654;28;20183;-91
2022/06/05 00:19:39;;;;;;;10.18;9.27;;;18.60;99.90;;;;;;4997226;28;20265;-91
2022/06/05 00:22:06;;;;;;;9.48;8.57;;;18.50;99.90;;;;;;4997377;28;20233;-90
2022/06/05 00:24:33;;;;;;;8.23;7.53;;;18.40;99.90;;;;;;4997093;28;20213;-91
2022/06/05 00:27:05;;;;;;;10.60;8.75;;;18.40;99.90;;;;;;5013700;28;20210;-90
2022/06/05 00:29:44;;;;;;;9.45;8.35;;;18.40;99.90;;;;;;4997230;28;20182;-91
2022/06/05 00:32:40;;;;;;;9.10;8.23;;;18.40;99.90;;;;;;4996882;28;20204;-90
2022/06/05 00:35:09;;;;;;;9.55;8.52;;;18.30;99.90;;;;;;4996957;28;20187;-91
2022/06/05 00:38:00;;;;;;;10.40;8.45;;;18.20;99.90;;;;;;5014979;28;20269;-90
2022/06/05 00:40:32;;;;;;;9.60;8.50;;;18.20;99.90;;;;;;5019930;28;20190;-91
2022/06/05 00:43:01;;;;;;;9.95;9.05;;;18.30;99.90;;;;;;5003420;28;20178;-91
2022/06/05 00:45:28;;;;;;;9.90;9.00;;;18.20;99.90;;;;;;5031180;28;20182;-91
2022/06/05 00:47:55;;;;;;;9.15;8.25;;;18.20;99.90;;;;;;5003436;28;20206;-91
2022/06/05 00:50:27;;;;;;;8.68;7.80;;;18.10;99.90;;;;;;5000150;28;20286;-91
2022/06/05 00:52:56;;;;;;;8.43;7.63;;;18.00;99.90;;;;;;5000172;28;20302;-90
2022/06/05 00:55:24;;;;;;;9.00;7.35;;;18.00;99.90;;;;;;5000054;28;20182;-91
2022/06/05 00:57:53;;;;;;;8.65;7.82;;;17.80;99.90;;;;;;4999891;28;20642;-91
2022/06/05 01:00:24;;;;;;;8.52;7.63;;;17.80;99.90;;;;;;4999812;28;20190;-90
2022/06/05 01:02:53;;;;;;;9.38;7.95;;;17.70;99.90;;;;;;5000007;28;20179;-91
2022/06/05 01:05:21;;;;;;;8.63;7.82;;;17.60;99.90;;;;;;4999850;28;20187;-91
2022/06/05 01:07:47;;;;;;;9.18;8.27;;;17.60;99.90;;;;;;4999776;28;20179;-91
2022/06/05 01:10:16;;;;;;;9.52;8.63;;;17.60;99.90;;;;;;5000153;28;20183;-91
2022/06/05 01:13:12;;;;;;;9.98;8.75;;;17.50;99.90;;;;;;4999876;28;20294;-90
2022/06/05 01:16:04;;;;;;;10.43;9.45;;;17.60;99.90;;;;;;5000129;28;20179;-90
2022/06/05 01:18:55;;;;;;;8.98;8.18;;;17.60;99.90;;;;;;5000047;28;20175;-91
2022/06/05 01:21:33;;;;;;;10.13;9.05;;;17.60;99.90;;;;;;4983573;28;20203;-90
2022/06/05 01:24:32;;;;;;;9.82;8.88;;;17.60;99.90;;;;;;4999799;28;20182;-90
2022/06/05 01:27:05;;;;;;;10.73;9.70;;;17.60;99.90;;;;;;4983397;28;20210;-90
2022/06/05 01:30:01;;;;;;;10.60;9.75;;;17.60;99.90;;;;;;4983588;28;20184;-90
2022/06/05 01:32:53;;;;;;;11.43;10.38;;;17.60;99.90;;;;;;4984002;28;20241;-91
2022/06/05 01:35:36;;;;;;;11.40;10.23;;;17.50;99.90;;;;;;4981473;28;20187;-90
2022/06/05 01:38:18;;;;;;;9.77;8.85;;;17.50;99.90;;;;;;4983386;28;20206;-90
2022/06/05 01:40:48;;;;;;;11.43;9.57;;;17.40;99.90;;;;;;4996869;28;20206;-90
2022/06/05 01:43:22;;;;;;;11.25;10.15;;;17.30;99.90;;;;;;4999643;28;20234;-91
2022/06/05 01:45:53;;;;;;;10.63;9.60;;;17.20;99.90;;;;;;4999785;28;20211;-90
2022/06/05 01:48:27;;;;;;;11.32;9.23;;;17.20;99.90;;;;;;4999931;28;20179;-91
2022/06/05 01:51:06;;;;;;;10.23;9.23;;;17.30;99.90;;;;;;4998051;28;20233;-91
2022/06/05 01:53:43;;;;;;;11.10;9.27;;;17.40;99.90;;;;;;4997993;28;20186;-91
2022/06/05 01:56:27;;;;;;;9.93;9.02;;;17.50;99.90;;;;;;4987331;28;20179;-91
2022/06/05 01:59:01;;;;;;;9.60;8.63;;;17.60;99.90;;;;;;4998688;28;20636;-90
2022/06/05 02:01:37;;;;;;;9.27;8.30;;;17.70;99.90;;;;;;4997998;28;20214;-92
2022/06/05 02:04:17;;;;;;;9.13;8.27;;;17.80;99.90;;;;;;4983805;28;20181;-91
2022/06/05 02:07:16;;;;;;;9.55;8.73;;;17.90;99.90;;;;;;4999649;28;20238;-90
2022/06/05 02:10:04;;;;;;;9.27;8.38;;;17.90;99.90;;;;;;4990791;28;20229;-90
2022/06/05 02:12:31;;;;;;;9.80;8.50;;;18.00;99.90;;;;;;4999304;28;20282;-91
2022/06/05 02:14:57;;;;;;;11.73;8.82;;;18.00;99.90;;;;;;4999298;28;20175;-91
2022/06/05 02:17:23;;;;;;;10.05;9.02;;;18.00;99.90;;;;;;4999766;28;20194;-91
2022/06/05 02:19:50;;;;;;;9.82;8.93;;;18.00;99.90;;;;;;4999398;28;20221;-91
2022/06/05 02:22:26;;;;;;;11.13;9.73;;;18.00;99.90;;;;;;4999107;28;20298;-90
2022/06/05 02:24:53;;;;;;;10.35;9.00;;;18.00;99.90;;;;;;4999456;28;20266;-91
2022/06/05 02:27:25;;;;;;;10.35;8.75;;;18.00;99.90;;;;;;4999145;28;20217;-91
2022/06/05 02:29:53;;;;;;;9.82;8.93;;;17.90;99.90;;;;;;4995725;28;20270;-90
2022/06/05 02:32:48;;;;;;;9.95;9.05;;;18.00;99.90;;;;;;4995756;28;20195;-91
2022/06/05 02:36:00;;;;;;;10.45;9.30;;;18.00;99.90;;;;;;4995639;28;20179;-92
2022/06/05 02:38:58;;;;;;;10.75;9.07;;;18.00;99.90;;;;;;4901798;29;20189;-90
2022/06/05 02:41:32;;;;;;;10.93;9.85;;;18.10;99.90;;;;;;4991610;28;20260;-91
2022/06/05 02:44:30;;;;;;;10.00;9.05;;;18.10;99.90;;;;;;5015434;28;20188;-91
2022/06/05 02:47:19;;;;;;;9.93;8.93;;;18.10;99.90;;;;;;5015423;28;20210;-91
2022/06/05 02:50:11;;;;;;;10.57;9.57;;;18.20;99.90;;;;;;4998587;28;20183;-91
2022/06/05 02:52:38;;;;;;;10.35;9.43;;;18.20;99.90;;;;;;4991059;28;20276;-91
2022/06/05 02:55:17;;;;;;;9.98;9.07;;;18.30;99.90;;;;;;5015349;28;20236;-91
2022/06/05 02:57:44;;;;;;;9.93;8.93;;;18.30;99.90;;;;;;5015324;28;20179;-90
2022/06/05 03:00:23;;;;;;;10.20;9.35;;;18.30;99.90;;;;;;5026850;28;20253;-91
2022/06/05 03:05:34;;;;;;;9.52;8.73;;;18.20;99.90;;;;;;5015300;28;20206;-91
2022/06/05 03:08:01;;;;;;;11.40;9.30;;;18.20;99.90;;;;;;4999004;28;20174;-91
2022/06/05 03:10:30;;;;;;;10.45;9.50;;;18.20;99.90;;;;;;4999182;28;20186;-90
2022/06/05 03:12:57;;;;;;;10.00;9.10;;;18.20;99.90;;;;;;5015760;28;20182;-91
2022/06/05 03:15:23;;;;;;;10.68;9.68;;;18.30;99.90;;;;;;4984318;28;20233;-90
2022/06/05 03:17:49;;;;;;;11.00;9.90;;;18.30;99.90;;;;;;4996729;28;20258;-90
2022/06/05 03:20:16;;;;;;;10.32;9.38;;;18.30;99.90;;;;;;4980156;28;20179;-90
2022/06/05 03:22:42;;;;;;;10.32;9.40;;;18.30;99.90;;;;;;4979461;28;20203;-91
2022/06/05 03:25:11;;;;;;;10.68;9.77;;;18.30;99.90;;;;;;4994855;28;20623;-90
2022/06/05 03:27:37;;;;;;;10.45;9.48;;;18.40;99.90;;;;;;4978565;28;20204;-91
2022/06/05 03:30:03;;;;;;;10.20;9.20;;;18.40;99.90;;;;;;4978721;28;20215;-91
2022/06/05 03:32:30;;;;;;;9.90;9.00;;;18.40;99.90;;;;;;4978536;28;20198;-91
2022/06/05 03:34:56;;;;;;;10.73;9.20;;;18.40;99.90;;;;;;4978639;28;20191;-90
2022/06/05 03:37:22;;;;;;;11.10;10.05;;;18.50;99.90;;;;;;4988074;28;20182;-91
2022/06/05 03:39:48;;;;;;;10.77;9.75;;;18.50;99.90;;;;;;4998030;28;20192;-91
2022/06/05 03:42:15;;;;;;;10.30;9.30;;;18.60;99.90;;;;;;4997699;28;20202;-90
2022/06/05 03:44:42;;;;;;;10.90;9.90;;;18.60;99.90;;;;;;5014113;28;20178;-91
2022/06/05 03:47:10;;;;;;;10.40;9.50;;;18.50;99.90;;;;;;5014231;28;20221;-90
2022/06/05 03:49:36;;;;;;;9.80;9.00;;;18.60;99.90;;;;;;5014018;28;20182;-91
2022/06/05 03:52:04;;;;;;;10.10;9.20;;;18.60;99.90;;;;;;4998055;28;20202;-91
2022/06/05 03:54:31;;;;;;;9.77;8.82;;;18.60;99.90;;;;;;5014025;28;20183;-91
2022/06/05 03:56:57;;;;;;;10.40;9.43;;;18.60;99.90;;;;;;4997981;28;20260;-91
2022/06/05 03:59:23;;;;;;;10.63;9.63;;;18.70;99.90;;;;;;4997629;28;20278;-91
2022/06/05 04:01:49;;;;;;;10.52;9.52;;;18.60;99.90;;;;;;4997528;28;20269;-91
2022/06/05 04:04:15;;;;;;;10.90;10.00;;;18.60;99.90;;;;;;4994076;28;20214;-91
2022/06/05 04:06:41;;;;;;;10.82;9.57;;;18.60;99.90;;;;;;4978621;28;20252;-91
2022/06/05 04:09:09;;;;;;;10.27;9.27;;;18.60;99.90;;;;;;4994094;28;20226;-90
2022/06/05 04:11:37;;;;;;;10.05;9.15;;;18.60;99.90;;;;;;4977654;28;20202;-91
2022/06/05 04:14:04;;;;;;;9.00;8.20;;;18.70;99.90;;;;;;4977950;28;20190;-91
2022/06/05 04:16:32;;;;;;;10.35;9.38;;;18.70;99.90;;;;;;4978269;28;20194;-91
2022/06/05 04:19:00;;;;;;;9.55;8.75;;;18.70;99.90;;;;;;4978013;28;20183;-91
2022/06/05 04:21:28;;;;;;;10.57;9.57;;;18.70;99.90;;;;;;4977693;28;20203;-91
2022/06/05 04:23:55;;;;;;;10.68;9.75;;;18.80;99.90;;;;;;4977750;28;20186;-90
2022/06/05 04:26:25;;;;;;;12.63;9.38;;;18.70;99.90;;;;;;5008628;28;20284;-91
2022/06/05 04:28:54;;;;;;;9.63;8.73;;;18.70;99.90;;;;;;4994196;28;20320;-90
2022/06/05 04:31:21;;;;;;;9.70;8.93;;;18.70;99.90;;;;;;4993916;28;20195;-92
2022/06/05 04:33:49;;;;;;;11.02;9.90;;;18.70;99.90;;;;;;4993936;28;20176;-91
2022/06/05 04:36:15;;;;;;;11.95;10.77;;;18.70;99.90;;;;;;4993705;28;20195;-91
2022/06/05 04:38:42;;;;;;;12.00;10.85;;;18.70;99.90;;;;;;4993530;28;20190;-91
2022/06/05 04:41:08;;;;;;;11.50;9.95;;;18.60;99.90;;;;;;4993458;28;20199;-90
2022/06/05 04:43:34;;;;;;;18.02;11.38;;;18.60;99.90;;;;;;4993902;28;20194;-90
2022/06/05 04:46:03;;;;;;;29.13;15.60;;;18.60;99.90;;;;;;4993391;28;20207;-91
2022/06/05 04:48:31;;;;;;;24.20;18.45;;;18.60;99.90;;;;;;4993177;28;20182;-91
2022/06/05 04:50:57;;;;;;;21.60;17.80;;;18.50;99.90;;;;;;4993479;28;20221;-91
2022/06/05 04:53:24;;;;;;;22.80;17.77;;;18.40;99.90;;;;;;4993509;28;20176;-91
2022/06/05 04:55:50;;;;;;;20.60;17.45;;;18.30;99.90;;;;;;4996690;28;20186;-90
2022/06/05 04:58:16;;;;;;;20.05;16.75;;;18.20;99.90;;;;;;5012932;28;20213;-90
2022/06/05 05:00:44;;;;;;;20.10;17.90;;;18.10;99.90;;;;;;5012588;28;20190;-90
2022/06/05 05:03:10;;;;;;;20.75;18.65;;;18.10;99.90;;;;;;4996611;28;20183;-90
2022/06/05 05:05:36;;;;;;;21.00;18.80;;;18.10;99.90;;;;;;4995873;28;20187;-90
2022/06/05 05:08:04;;;;;;;22.30;20.10;;;18.10;99.90;;;;;;4996659;28;20181;-91
2022/06/05 05:10:30;;;;;;;25.48;21.77;;;18.10;99.90;;;;;;4996220;28;20189;-91
2022/06/05 05:12:56;;;;;;;26.05;22.73;;;18.10;99.90;;;;;;4996624;28;20189;-91
2022/06/05 05:15:22;;;;;;;25.27;22.58;;;18.10;99.90;;;;;;4996306;28;20269;-91
2022/06/05 05:17:48;;;;;;;23.13;20.40;;;18.00;99.90;;;;;;4996083;28;20196;-91
2022/06/05 05:20:14;;;;;;;25.30;21.27;;;17.90;99.90;;;;;;4996552;28;20198;-90
2022/06/05 05:22:40;;;;;;;22.33;20.05;;;17.90;99.90;;;;;;4996435;28;20199;-90
2022/06/05 05:25:09;;;;;;;21.30;19.00;;;17.90;99.90;;;;;;4997764;28;20201;-91
2022/06/05 05:27:36;;;;;;;21.55;19.13;;;17.90;99.90;;;;;;5016319;28;20210;-90
2022/06/05 05:30:05;;;;;;;23.88;19.92;;;17.90;99.90;;;;;;4999913;28;20182;-90
2022/06/05 05:32:32;;;;;;;21.50;19.15;;;17.90;99.90;;;;;;5000205;28;20199;-90
2022/06/05 05:34:58;;;;;;;24.00;20.98;;;17.90;99.90;;;;;;4996125;28;20175;-90
2022/06/05 05:37:25;;;;;;;24.90;21.70;;;17.90;99.90;;;;;;4980607;28;20179;-90
2022/06/05 05:42:36;;;;;;;21.05;18.77;;;17.90;99.90;;;;;;4996374;28;20202;-91
2022/06/05 05:45:02;;;;;;;21.08;18.90;;;17.80;99.90;;;;;;4989978;28;20245;-91
2022/06/05 05:47:30;;;;;;;19.38;17.35;;;17.80;99.90;;;;;;4996759;28;20236;-90
2022/06/05 05:50:02;;;;;;;10.50;9.40;;;17.80;99.90;;;;;;4997016;28;20187;-90
2022/06/05 05:52:29;;;;;;;4.85;4.40;;;17.80;99.90;;;;;;4980807;28;20199;-90
2022/06/05 05:54:55;;;;;;;3.20;2.90;;;17.80;99.90;;;;;;4987798;28;20228;-90
2022/06/05 05:57:21;;;;;;;2.95;2.00;;;17.90;99.90;;;;;;5001483;28;20182;-91
2022/06/05 05:59:48;;;;;;;2.00;1.80;;;18.00;99.90;;;;;;5001696;28;20235;-90
2022/06/05 06:02:19;;;;;;;3.67;2.55;;;18.10;99.90;;;;;;5000866;28;20201;-90
2022/06/05 06:04:45;;;;;;;3.15;2.83;;;18.10;99.90;;;;;;5001150;28;20240;-90
2022/06/05 06:07:13;;;;;;;3.33;2.40;;;18.10;99.90;;;;;;4999944;28;20275;-90
2022/06/05 06:09:40;;;;;;;3.63;2.60;;;18.10;99.90;;;;;;4998868;28;20193;-90
2022/06/05 06:12:07;;;;;;;2.33;2.13;;;18.10;99.90;;;;;;4985552;28;20346;-91
2022/06/05 06:14:33;;;;;;;2.88;2.50;;;18.10;99.90;;;;;;4998989;28;20317;-90
2022/06/05 06:16:59;;;;;;;3.22;2.42;;;18.10;99.90;;;;;;4999601;28;20182;-90
2022/06/05 06:19:25;;;;;;;5.53;2.92;;;18.10;99.90;;;;;;5000422;28;20293;-90
2022/06/05 06:21:51;;;;;;;2.70;2.50;;;18.10;99.90;;;;;;4998983;28;20206;-90
2022/06/05 06:24:18;;;;;;;3.10;2.78;;;18.10;99.90;;;;;;4996518;28;20187;-90
2022/06/05 06:26:44;;;;;;;4.88;3.10;;;18.10;99.90;;;;;;4998359;28;20222;-90
2022/06/05 06:29:10;;;;;;;3.92;3.60;;;18.10;99.90;;;;;;5015786;28;20209;-90
2022/06/05 06:31:42;;;;;;;6.30;5.65;;;18.10;99.90;;;;;;5014953;28;20195;-90
2022/06/05 06:34:08;;;;;;;7.55;6.40;;;18.00;99.90;;;;;;5018985;28;20265;-90
2022/06/05 06:36:35;;;;;;;12.48;7.53;;;18.00;99.90;;;;;;5014758;28;20189;-90
2022/06/05 06:39:01;;;;;;;7.75;5.78;;;18.00;99.90;;;;;;5010943;28;20202;-90
2022/06/05 06:41:28;;;;;;;5.80;5.30;;;17.90;99.90;;;;;;4979294;28;20215;-90
2022/06/05 06:43:54;;;;;;;5.00;4.60;;;17.90;99.90;;;;;;4979539;28;20175;-90
2022/06/05 06:46:20;;;;;;;7.03;5.82;;;17.90;99.90;;;;;;4979663;28;20210;-91
2022/06/05 06:48:46;;;;;;;5.43;4.50;;;18.00;99.90;;;;;;4996305;28;20180;-90
2022/06/05 06:51:48;;;;;;;7.97;6.85;;;17.90;99.90;;;;;;4980381;28;20202;-90
2022/06/05 06:54:21;;;;;;;20.20;15.55;;;18.00;99.90;;;;;;4980695;28;20191;-89
2022/06/05 06:56:47;;;;;;;18.83;15.40;;;18.00;99.90;;;;;;5008726;28;20194;-90
2022/06/05 06:59:13;;;;;;;20.67;16.52;;;18.00;99.90;;;;;;4989558;28;20183;-90
2022/06/05 07:01:39;;;;;;;18.00;15.50;;;18.00;99.90;;;;;;5004625;28;20199;-90
2022/06/05 07:04:05;;;;;;;14.77;13.20;;;18.00;99.90;;;;;;4992485;28;20210;-89
2022/06/05 07:06:31;;;;;;;15.20;12.05;;;18.00;99.90;;;;;;4991534;28;20675;-89
2022/06/05 07:08:59;;;;;;;15.93;10.75;;;18.00;99.90;;;;;;4989219;28;20253;-90
2022/06/05 07:11:25;;;;;;;10.88;9.77;;;18.00;99.90;;;;;;4989806;28;20202;-90
2022/06/05 07:13:51;;;;;;;12.18;9.80;;;18.10;99.90;;;;;;4998443;28;20240;-89
2022/06/05 07:16:18;;;;;;;10.88;9.63;;;18.10;99.90;;;;;;5012316;28;20207;-90
2022/06/05 07:18:45;;;;;;;11.45;9.02;;;18.20;99.90;;;;;;4995218;28;20184;-90
2022/06/05 07:21:14;;;;;;;11.95;9.63;;;18.20;99.90;;;;;;4979434;28;20227;-90
2022/06/05 07:23:41;;;;;;;10.18;8.60;;;18.20;99.90;;;;;;4981149;28;20197;-90
2022/06/05 07:26:09;;;;;;;8.95;8.05;;;18.30;99.90;;;;;;4995161;28;20226;-90
2022/06/05 07:28:35;;;;;;;8.13;7.05;;;18.30;99.90;;;;;;5007145;28;20183;-90
2022/06/05 07:31:03;;;;;;;8.63;6.22;;;18.40;99.90;;;;;;5014225;28;20286;-90
2022/06/05 07:33:33;;;;;;;7.18;6.05;;;18.40;99.90;;;;;;5027756;28;20175;-89
2022/06/05 07:36:03;;;;;;;5.22;4.72;;;18.50;99.90;;;;;;4998430;28;20175;-90
2022/06/05 07:38:30;;;;;;;4.63;4.13;;;18.60;99.90;;;;;;4994661;28;20210;-90
2022/06/05 07:40:56;;;;;;;5.55;5.00;;;18.60;99.90;;;;;;4998457;28;20194;-90
2022/06/05 07:43:22;;;;;;;4.88;4.38;;;18.70;99.90;;;;;;4990746;28;20186;-90
2022/06/05 07:45:49;;;;;;;10.75;6.78;;;18.80;99.90;;;;;;4987584;28;20222;-90
2022/06/05 07:48:18;;;;;;;15.32;9.50;;;18.90;99.90;;;;;;4989508;28;20183;-90
2022/06/05 07:56:13;;;;;;;10.55;9.43;;;19.10;99.90;;;;;;4998269;28;20186;-90
2022/06/05 07:58:39;;;;;;;9.35;8.43;;;19.30;99.90;;;;;;4986189;28;20178;-89
2022/06/05 08:01:07;;;;;;;11.63;9.63;;;19.40;99.90;;;;;;5004377;28;20236;-90
2022/06/05 08:03:34;;;;;;;9.15;8.30;;;19.50;99.90;;;;;;4987549;28;20175;-89
2022/06/05 08:06:00;;;;;;;8.93;8.13;;;19.60;99.90;;;;;;4996389;28;20717;-89
2022/06/05 08:08:27;;;;;;;9.35;8.45;;;19.70;99.90;;;;;;4998624;28;20213;-89
2022/06/05 08:10:53;;;;;;;6.45;5.78;;;19.80;99.90;;;;;;5011277;28;20199;-90
2022/06/05 08:13:19;;;;;;;5.60;5.20;;;19.70;99.90;;;;;;5011742;28;20181;-89
2022/06/05 08:15:46;;;;;;;6.13;5.10;;;19.90;99.90;;;;;;4991453;28;20175;-90
2022/06/05 08:18:12;;;;;;;5.07;4.68;;;20.10;99.90;;;;;;5012721;28;20174;-90
2022/06/05 08:20:38;;;;;;;5.63;4.65;;;20.30;99.90;;;;;;4993518;28;20186;-90
2022/06/05 08:23:05;;;;;;;5.05;4.18;;;20.60;99.90;;;;;;5010857;28;20179;-91
2022/06/05 08:25:31;;;;;;;3.95;3.40;;;20.80;99.90;;;;;;4991075;28;20194;-90
2022/06/05 08:27:56;;;;;;;3.55;3.25;;;20.90;99.90;;;;;;4988474;28;20206;-90
2022/06/05 08:30:22;;;;;;;3.60;2.95;;;21.20;99.90;;;;;;4997153;28;20174;-90
2022/06/05 08:32:48;;;;;;;4.05;3.10;;;21.40;99.90;;;;;;5010024;28;20199;-90
2022/06/05 08:35:14;;;;;;;2.70;2.50;;;21.60;99.90;;;;;;5006496;28;20265;-90
2022/06/05 08:43:39;;;;;;;3.10;2.80;;;21.90;99.90;;;;;;5027987;28;20277;-89
2022/06/05 08:46:09;;;;;;;3.00;2.80;;;21.90;99.90;;;;;;5006039;28;20207;-90
2022/06/05 08:48:52;;;;;;;4.13;3.00;;;22.20;99.90;;;;;;4981648;28;20204;-90
2022/06/05 08:51:33;;;;;;;3.22;3.03;;;22.40;99.90;;;;;;4993437;28;20202;-90
2022/06/05 08:54:35;;;;;;;3.30;3.00;;;22.70;99.90;;;;;;4976881;28;20179;-90
2022/06/05 08:57:08;;;;;;;5.30;2.85;;;22.90;99.90;;;;;;4993361;28;20179;-90
2022/06/05 08:59:50;;;;;;;4.13;3.38;;;23.00;99.90;;;;;;4979668;28;20261;-90
2022/06/05 09:02:29;;;;;;;5.03;3.03;;;23.00;99.90;;;;;;4981174;28;20670;-90
2022/06/05 09:05:24;;;;;;;3.83;3.42;;;23.00;99.90;;;;;;4980590;28;20222;-90
2022/06/05 09:07:54;;;;;;;4.45;3.10;;;22.80;99.90;;;;;;4997968;28;20222;-90
2022/06/05 09:10:44;;;;;;;3.38;3.05;;;22.90;99.90;;;;;;5061283;23;20241;-33
2022/06/05 09:13:43;;;;;;;3.03;2.67;;;23.00;99.90;;;;;;5039010;28;20223;-33
2022/06/05 09:16:27;;;;;;;7.57;2.70;;;22.90;99.90;;;;;;5036039;28;20213;-33
2022/06/05 09:18:53;;;;;;;2.78;2.58;;;22.80;99.90;;;;;;5052880;28;20205;-33
2022/06/05 09:21:50;;;;;;;2.78;2.58;;;22.70;99.90;;;;;;5036851;28;20189;-40
2022/06/05 09:24:23;;;;;;;4.28;2.65;;;22.60;99.90;;;;;;5035125;28;20300;-40
2022/06/05 09:27:13;;;;;;;3.83;2.00;;;22.70;99.90;;;;;;5019498;28;20205;-40
2022/06/05 09:29:54;;;;;;;2.72;2.22;;;22.70;99.90;;;;;;5035809;28;20228;-42
2022/06/05 09:33:00;;;;;;;2.75;1.90;;;22.80;99.90;;;;;;5035802;28;20174;-40
2022/06/05 09:35:36;;;;;;;3.38;1.98;;;22.80;99.90;;;;;;5018485;28;20224;-42
2022/06/05 09:38:15;;;;;;;3.60;2.15;;;22.90;99.90;;;;;;5035927;28;20173;-40
2022/06/05 09:41:14;;;;;;;4.35;2.20;;;23.00;99.90;;;;;;5019184;28;20231;-38
2022/06/05 09:44:22;;;;;;;4.32;2.00;;;22.90;99.90;;;;;;5018687;28;20185;-40
2022/06/05 09:46:58;;;;;;;5.47;2.38;;;22.70;99.90;;;;;;5019245;28;20206;-40
2022/06/05 09:49:30;;;;;;;3.38;1.98;;;22.60;99.90;;;;;;5035514;28;20181;-42
2022/06/05 09:51:57;;;;;;;3.67;2.47;;;22.60;99.90;;;;;;5035786;28;20170;-42
2022/06/05 09:54:28;;;;;;;5.35;2.70;;;22.60;99.90;;;;;;5018652;28;20201;-42
2022/06/05 10:00:44;;;;;;;2.80;2.28;;;22.50;99.90;;;;;;5035189;28;20190;-40
2022/06/05 10:03:12;;;;;;;6.07;2.95;;;22.30;99.90;;;;;;5018700;28;20312;-42
2022/06/05 10:06:07;;;;;;;5.80;2.45;;;22.20;99.90;;;;;;5035023;28;20221;-43
2022/06/05 10:08:43;;;;;;;6.20;3.10;;;22.00;99.90;;;;;;5014166;28;20193;-41
2022/06/05 10:11:32;;;;;;;3.97;2.75;;;21.90;99.90;;;;;;5017320;28;20174;-42
2022/06/05 10:14:22;;;;;;;4.65;2.92;;;21.80;99.90;;;;;;5009276;28;20254;-45
2022/06/05 10:17:20;;;;;;;3.67;2.63;;;21.70;99.90;;;;;;5035035;28;20170;-42
2022/06/05 10:20:08;;;;;;;3.63;2.85;;;21.60;99.90;;;;;;5052391;28;20185;-40
2022/06/05 10:23:06;;;;;;;4.32;2.75;;;21.50;99.90;;;;;;5042009;28;20240;-39
2022/06/05 10:26:12;;;;;;;4.90;3.13;;;21.20;99.90;;;;;;4991084;28;20302;-40
2022/06/05 10:28:41;;;;;;;3.78;3.15;;;21.00;99.90;;;;;;4998668;28;20191;-42
2022/06/05 10:31:22;;;;;;;6.25;3.10;;;20.80;99.90;;;;;;5015142;28;20279;-44
2022/06/05 10:33:53;;;;;;;4.30;3.28;;;20.70;99.90;;;;;;4998774;28;20674;-44
2022/06/05 10:36:34;;;;;;;3.75;3.22;;;20.60;99.90;;;;;;4998663;28;20182;-44
2022/06/05 10:39:17;;;;;;;6.45;4.00;;;20.50;99.90;;;;;;5018002;28;20272;-44
2022/06/05 10:41:49;;;;;;;7.18;3.90;;;20.30;99.90;;;;;;5027813;28;20642;-44
2022/06/05 10:44:33;;;;;;;5.22;4.30;;;20.30;99.90;;;;;;5028163;28;20193;-41
2022/06/05 10:47:18;;;;;;;4.35;3.50;;;20.30;99.90;;;;;;5034138;28;20267;-41
2022/06/05 10:50:01;;;;;;;6.15;4.35;;;20.30;99.90;;;;;;5018011;28;20182;-44
2022/06/05 10:52:38;;;;;;;4.95;3.75;;;20.30;99.90;;;;;;5032592;28;20178;-44
2022/06/05 10:55:24;;;;;;;5.72;3.55;;;20.20;99.90;;;;;;5029288;28;20204;-43
2022/06/05 10:58:28;;;;;;;4.82;3.53;;;20.10;99.90;;;;;;5048988;28;20246;-41
2022/06/05 11:01:36;;;;;;;5.47;3.10;;;20.10;99.90;;;;;;5028184;28;20190;-44
2022/06/05 11:04:39;;;;;;;3.42;3.00;;;20.10;99.90;;;;;;5014891;28;20251;-44
2022/06/05 11:07:24;;;;;;;5.97;2.90;;;20.00;99.90;;;;;;5033602;28;20227;-43
2022/06/05 11:10:15;;;;;;;6.30;3.10;;;20.00;99.90;;;;;;5051134;28;20267;-44
2022/06/05 11:15:59;;;;;;;5.22;2.85;;;20.10;99.90;;;;;;5033711;28;20269;-44
2022/06/05 11:18:59;;;;;;;4.97;2.55;;;20.40;99.90;;;;;;5017631;28;20275;-43
2022/06/05 11:21:28;;;;;;;3.80;3.15;;;20.70;99.90;;;;;;5017141;28;20228;-44
2022/06/05 11:23:57;;;;;;;3.17;2.70;;;20.90;99.90;;;;;;5032745;28;20235;-43
2022/06/05 11:26:53;;;;;;;5.45;2.83;;;21.10;99.90;;;;;;5017103;28;20217;-43
2022/06/05 11:29:34;;;;;;;5.57;2.97;;;21.30;99.90;;;;;;5017337;28;20182;-44
2022/06/05 11:32:25;;;;;;;6.05;2.90;;;21.50;99.90;;;;;;5033825;28;20174;-43
2022/06/05 11:35:07;;;;;;;3.47;2.60;;;21.60;99.90;;;;;;5050985;28;20200;-44
2022/06/05 11:37:49;;;;;;;7.47;2.83;;;21.90;99.90;;;;;;5033463;28;20181;-44
2022/06/05 11:40:34;;;;;;;4.07;2.40;;;22.20;99.90;;;;;;5017144;28;20185;-44
2022/06/05 11:43:33;;;;;;;4.10;2.40;;;22.50;99.90;;;;;;5051372;28;20209;-43
2022/06/05 11:46:11;;;;;;;4.07;2.75;;;22.60;99.90;;;;;;5025838;28;20209;-43
2022/06/05 11:49:01;;;;;;;5.43;2.58;;;22.60;99.90;;;;;;5017015;28;20181;-42
2022/06/05 11:52:00;;;;;;;6.03;2.88;;;22.60;99.90;;;;;;5016764;28;20182;-43
2022/06/05 11:54:46;;;;;;;3.45;2.35;;;22.50;99.90;;;;;;5016373;28;20197;-43
2022/06/05 11:57:33;;;;;;;4.22;2.70;;;22.50;99.90;;;;;;5033163;28;20189;-42
2022/06/05 12:00:05;;;;;;;3.92;2.25;;;22.50;99.90;;;;;;5016625;28;20210;-43
2022/06/05 12:02:45;;;;;;;4.95;2.60;;;22.40;99.90;;;;;;5033229;28;20209;-42
2022/06/05 12:05:21;;;;;;;3.85;2.63;;;22.40;99.90;;;;;;5032949;28;20273;-43
2022/06/05 12:07:49;;;;;;;7.47;2.88;;;22.30;99.90;;;;;;5016526;28;20240;-41
2022/06/05 12:10:24;;;;;;;2.95;2.30;;;22.10;99.90;;;;;;5050861;28;20213;-43
2022/06/05 12:13:25;;;;;;;4.72;2.72;;;22.10;99.90;;;;;;5033224;28;20193;-43
2022/06/05 12:16:26;;;;;;;5.28;2.50;;;22.00;99.90;;;;;;5032703;28;20271;-43
2022/06/05 12:18:59;;;;;;;5.15;2.67;;;22.00;99.90;;;;;;5027407;28;20204;-43
2022/06/05 12:21:33;;;;;;;4.80;2.40;;;22.00;99.90;;;;;;5032986;28;20212;-43
2022/06/05 12:24:48;;;;;;;5.53;2.42;;;22.20;99.90;;;;;;5032650;28;20170;-43
2022/06/05 12:27:16;;;;;;;5.63;2.65;;;22.40;99.90;;;;;;4988831;28;20299;-43
2022/06/05 12:30:13;;;;;;;5.35;2.88;;;22.60;99.90;;;;;;4972575;28;20303;-43
2022/06/05 12:33:14;;;;;;;3.55;2.53;;;22.80;99.90;;;;;;5030623;28;20268;-43
2022/06/05 12:35:44;;;;;;;6.38;2.58;;;22.90;99.90;;;;;;5032521;28;20197;-43
2022/06/05 12:38:28;;;;;;;3.13;2.50;;;22.90;99.90;;;;;;5050797;28;20178;-43
2022/06/05 12:41:05;;;;;;;3.75;2.40;;;22.90;99.90;;;;;;5016398;28;20178;-43
2022/06/05 12:43:56;;;;;;;7.50;2.80;;;22.60;99.90;;;;;;5016146;28;20185;-41
2022/06/05 12:46:27;;;;;;;3.50;2.70;;;22.60;99.90;;;;;;5016169;28;20210;-43
2022/06/05 12:49:23;;;;;;;3.78;2.50;;;22.50;99.90;;;;;;5016060;28;20174;-43
2022/06/05 12:52:01;;;;;;;5.20;2.60;;;22.40;99.90;;;;;;5016477;28;20181;-43
2022/06/05 12:54:37;;;;;;;5.57;2.78;;;22.40;99.90;;;;;;5015945;28;20197;-43
2022/06/05 12:57:11;;;;;;;4.78;2.75;;;22.50;99.90;;;;;;5032634;28;20402;-43
2022/06/05 12:59:52;;;;;;;5.18;2.63;;;22.50;99.90;;;;;;5032648;28;20231;-43
2022/06/05 13:02:30;;;;;;;5.28;2.72;;;22.60;99.90;;;;;;5050364;28;20455;-42
2022/06/05 13:05:32;;;;;;;4.68;2.70;;;22.70;99.90;;;;;;5032271;28;20208;-43
2022/06/05 13:08:18;;;;;;;5.53;2.95;;;22.80;99.90;;;;;;4972392;28;20217;-43
2022/06/05 13:11:22;;;;;;;4.32;3.00;;;22.90;99.90;;;;;;5046520;28;20198;-43
2022/06/05 13:14:17;;;;;;;3.80;2.70;;;23.10;99.90;;;;;;5032361;28;20181;-43
2022/06/05 13:16:49;;;;;;;5.05;2.50;;;23.20;99.90;;;;;;5032286;28;20194;-43
2022/06/05 13:19:29;;;;;;;6.60;2.58;;;23.30;99.90;;;;;;5032830;28;20170;-43
2022/06/05 13:22:16;;;;;;;3.08;2.30;;;23.30;99.90;;;;;;5032677;28;20650;-43
2022/06/05 13:25:01;;;;;;;4.13;2.83;;;23.50;99.90;;;;;;5011039;28;20226;-43
2022/06/05 13:27:59;;;;;;;3.85;2.65;;;23.50;99.90;;;;;;5030652;28;20194;-43
2022/06/05 13:30:29;;;;;;;3.55;2.40;;;23.40;99.90;;;;;;5048796;28;20227;-43
2022/06/05 13:33:01;;;;;;;3.88;2.33;;;23.40;99.90;;;;;;5026004;28;20178;-43
2022/06/05 13:35:51;;;;;;;4.05;2.35;;;23.30;99.90;;;;;;5023441;28;20191;-41
2022/06/05 13:38:35;;;;;;;3.03;1.95;;;23.20;99.90;;;;;;5024782;28;20167;-43
2022/06/05 13:41:19;;;;;;;2.40;2.20;;;23.10;99.90;;;;;;5007168;28;20210;-43
2022/06/05 13:43:50;;;;;;;5.40;2.70;;;23.10;99.90;;;;;;5025754;28;20174;-43
2022/06/05 13:47:15;;;;;;;6.07;2.63;;;23.00;99.90;;;;;;5007193;28;20305;-43
2022/06/05 13:49:44;;;;;;;3.88;2.50;;;22.80;99.90;;;;;;4967377;28;20257;-43